createdAt,value
2022-10-06T00:02:05.889Z,99599.72
2022-10-06T00:04:34.496Z,99599.72
2022-10-06T00:07:02.880Z,99604.31
2022-10-06T00:09:32.833Z,99608.09
2022-10-06T00:12:01.589Z,99613.78
2022-10-06T00:14:30.005Z,99622.88
2022-10-06T00:16:58.377Z,99627.84
2022-10-06T00:19:26.805Z,99630.31
2022-10-06T00:21:55.720Z,99632.97
2022-10-06T00:24:23.832Z,99643.13
2022-10-06T00:26:53.844Z,99641.66
2022-10-06T00:29:22.270Z,99650.81
2022-10-06T00:31:50.421Z,99648.16
2022-10-06T00:34:18.767Z,99649.13
2022-10-06T00:36:47.231Z,99661.50
2022-10-06T00:39:15.805Z,99652.16
2022-10-06T00:41:44.237Z,99648.88
2022-10-06T00:44:14.372Z,99654.81
2022-10-06T00:46:46.627Z,99653.88
2022-10-06T00:49:21.696Z,99655.31
2022-10-06T00:51:54.661Z,99661.16
2022-10-06T00:54:23.942Z,99665.41
2022-10-06T00:56:52.289Z,99674.25
2022-10-06T00:59:22.837Z,99687.38
2022-10-06T01:01:57.169Z,99695.66
2022-10-06T01:04:27.234Z,99698.34
2022-10-06T01:06:59.302Z,99703.13
2022-10-06T01:09:31.932Z,99716.53
2022-10-06T01:12:04.421Z,99729.94
2022-10-06T01:14:36.280Z,99734.38
2022-10-06T01:17:11.477Z,99727.75
2022-10-06T01:19:52.650Z,99741.72
2022-10-06T01:22:30.663Z,99720.47
2022-10-06T01:24:59.927Z,99727.50
2022-10-06T01:27:31.311Z,99732.00
2022-10-06T01:30:01.728Z,99730.09
2022-10-06T01:32:35.076Z,99739.69
2022-10-06T01:35:03.842Z,99743.56
2022-10-06T01:37:36.213Z,99746.00
2022-10-06T01:40:05.790Z,99747.97
2022-10-06T01:42:35.992Z,99748.56
2022-10-06T01:45:05.432Z,99749.75
2022-10-06T01:47:34.513Z,99751.56
2022-10-06T01:50:03.153Z,99761.41
2022-10-06T01:52:31.563Z,99772.59
2022-10-06T01:55:01.377Z,99767.97
2022-10-06T01:57:29.928Z,99773.31
2022-10-06T01:59:58.301Z,99785.13
2022-10-06T02:02:26.807Z,99777.28
2022-10-06T02:04:55.412Z,99785.78
2022-10-06T02:07:23.809Z,99780.78
2022-10-06T02:09:52.111Z,99789.03
2022-10-06T02:12:22.623Z,99792.25
2022-10-06T02:14:51.058Z,99788.19
2022-10-06T02:17:19.395Z,99797.38
2022-10-06T02:19:47.580Z,99807.22
2022-10-06T02:22:15.699Z,99810.41
2022-10-06T02:24:44.164Z,99808.28
2022-10-06T02:27:15.109Z,99832.53
2022-10-06T02:29:45.289Z,99846.56
2022-10-06T02:32:13.805Z,99850.00
2022-10-06T02:34:42.860Z,99859.53
2022-10-06T02:37:11.244Z,99856.47
2022-10-06T02:39:39.632Z,99867.78
2022-10-06T02:42:08.255Z,99873.13
2022-10-06T02:44:36.653Z,99879.31
2022-10-06T02:47:07.527Z,99881.44
2022-10-06T02:49:37.133Z,99878.47
2022-10-06T02:52:05.552Z,99884.47
2022-10-06T02:54:35.712Z,99882.84
2022-10-06T02:57:04.247Z,99877.50
2022-10-06T02:59:34.197Z,99887.53
2022-10-06T03:02:02.921Z,99893.31
2022-10-06T03:04:32.820Z,99891.16
2022-10-06T03:07:01.270Z,99896.28
2022-10-06T03:09:33.933Z,99885.94
2022-10-06T03:12:02.359Z,99892.88
2022-10-06T03:14:30.734Z,99891.63
2022-10-06T03:16:59.255Z,99899.19
2022-10-06T03:19:27.706Z,99906.00
2022-10-06T03:21:59.498Z,99906.66
2022-10-06T03:24:28.027Z,99905.69
2022-10-06T03:26:56.613Z,99920.09
2022-10-06T03:29:24.761Z,99916.25
2022-10-06T03:31:53.260Z,99919.22
2022-10-06T03:34:21.804Z,99930.97
2022-10-06T03:36:50.107Z,99928.31
2022-10-06T03:39:20.210Z,99942.38
2022-10-06T03:41:48.827Z,99941.22
2022-10-06T03:44:17.380Z,99944.00
2022-10-06T03:46:45.829Z,99942.72
2022-10-06T03:49:14.589Z,99943.56
2022-10-06T03:51:44.353Z,99955.94
2022-10-06T03:54:13.102Z,99968.00
2022-10-06T03:56:43.261Z,99966.50
2022-10-06T03:59:13.995Z,99965.09
2022-10-06T04:01:44.483Z,99963.63
2022-10-06T04:04:14.622Z,99969.91
2022-10-06T04:06:44.780Z,99979.84
2022-10-06T04:09:16.250Z,99982.94
2022-10-06T04:11:49.701Z,99986.75
2022-10-06T04:14:19.550Z,99989.59
2022-10-06T04:16:49.563Z,99989.09
2022-10-06T04:19:19.488Z,99995.88
2022-10-06T04:21:49.154Z,100010.81
2022-10-06T04:24:18.668Z,100015.91
2022-10-06T04:26:50.225Z,100017.25
2022-10-06T04:29:18.701Z,100021.91
2022-10-06T04:31:47.237Z,100028.38
2022-10-06T04:34:15.643Z,100028.06
2022-10-06T04:36:47.325Z,100037.13
2022-10-06T04:39:15.765Z,100035.16
2022-10-06T04:41:47.584Z,100050.00
2022-10-06T04:44:17.323Z,100052.69
2022-10-06T04:46:45.930Z,100061.22
2022-10-06T04:49:20.106Z,100071.66
2022-10-06T04:51:50.128Z,100074.19
2022-10-06T04:54:19.429Z,100082.66
2022-10-06T04:56:47.918Z,100079.50
2022-10-06T04:59:17.850Z,100084.66
2022-10-06T05:01:47.767Z,100079.59
2022-10-06T05:04:16.211Z,100088.84
2022-10-06T05:06:44.861Z,100090.72
2022-10-06T05:09:16.013Z,100104.16
2022-10-06T05:11:45.305Z,100109.44
2022-10-06T05:14:14.037Z,100117.72
2022-10-06T05:16:43.706Z,100118.19
2022-10-06T05:19:11.947Z,100120.00
2022-10-06T05:21:40.213Z,100122.31
2022-10-06T05:24:09.417Z,100123.16
2022-10-06T05:26:38.196Z,100128.94
2022-10-06T05:29:06.511Z,100134.53
2022-10-06T05:31:39.081Z,100134.06
2022-10-06T05:34:09.468Z,100145.25
2022-10-06T05:36:38.565Z,100138.09
2022-10-06T05:39:06.890Z,100148.91
2022-10-06T05:41:37.841Z,100151.50
2022-10-06T05:44:07.275Z,100151.72
2022-10-06T05:46:36.536Z,100161.53
2022-10-06T05:49:07.343Z,100161.97
2022-10-06T05:51:39.044Z,100166.44
2022-10-06T05:54:07.896Z,100165.56
2022-10-06T05:56:37.990Z,100166.72
2022-10-06T05:59:07.256Z,100182.22
2022-10-06T06:01:37.219Z,100184.72
2022-10-06T06:04:07.454Z,100191.09
2022-10-06T06:06:40.420Z,100196.81
2022-10-06T06:09:10.484Z,100209.25
2022-10-06T06:11:40.884Z,100213.63
2022-10-06T06:14:11.037Z,100219.91
2022-10-06T06:16:42.780Z,100218.53
2022-10-06T06:19:12.826Z,100221.53
2022-10-06T06:21:44.061Z,100233.63
2022-10-06T06:24:12.984Z,100229.16
2022-10-06T06:26:42.642Z,100229.59
2022-10-06T06:29:10.856Z,100238.94
2022-10-06T06:31:41.836Z,100250.63
2022-10-06T06:34:12.179Z,100251.72
2022-10-06T06:36:47.143Z,100256.53
2022-10-06T06:39:16.515Z,100268.41
2022-10-06T06:41:46.677Z,100254.28
2022-10-06T06:44:15.310Z,100259.03
2022-10-06T06:46:49.352Z,100266.63
2022-10-06T06:49:20.863Z,100267.88
2022-10-06T06:51:51.238Z,100281.75
2022-10-06T06:54:19.935Z,100281.94
2022-10-06T06:56:49.143Z,100294.28
2022-10-06T06:59:18.152Z,100295.25
2022-10-06T07:01:49.030Z,100292.91
2022-10-06T07:04:18.223Z,100297.06
2022-10-06T07:06:57.229Z,100297.91
2022-10-06T07:09:27.949Z,100305.97
2022-10-06T07:11:56.650Z,100307.16
2022-10-06T07:14:25.485Z,100309.06
2022-10-06T07:17:11.097Z,100316.53
2022-10-06T07:19:56.468Z,100324.78
2022-10-06T07:22:46.244Z,100320.81
2022-10-06T07:25:25.302Z,100322.28
2022-10-06T07:27:54.681Z,100334.81
2022-10-06T07:30:25.911Z,100338.50
2022-10-06T07:32:55.172Z,100335.28
2022-10-06T07:35:27.395Z,100346.50
2022-10-06T07:37:57.782Z,100346.13
2022-10-06T07:40:27.732Z,100344.88
2022-10-06T07:42:56.432Z,100350.44
2022-10-06T07:45:43.054Z,100351.69
2022-10-06T07:48:14.741Z,100354.28
2022-10-06T07:50:44.036Z,100360.56
2022-10-06T07:53:12.163Z,100371.31
2022-10-06T07:55:45.527Z,100361.84
2022-10-06T07:58:17.465Z,100363.50
2022-10-06T08:00:48.515Z,100366.50
2022-10-06T08:03:18.563Z,100369.84
2022-10-06T08:05:48.484Z,100377.91
2022-10-06T08:08:17.931Z,100376.41
2022-10-06T08:10:54.988Z,100377.09
2022-10-06T08:13:25.087Z,100380.06
2022-10-06T08:15:56.692Z,100387.47
2022-10-06T08:21:19.873Z,100394.75
2022-10-06T08:23:50.991Z,100392.53
2022-10-06T08:26:23.399Z,100406.53
2022-10-06T08:28:53.839Z,100401.00
2022-10-06T08:31:23.665Z,100407.56
2022-10-06T08:33:56.344Z,100413.47
2022-10-06T08:36:31.067Z,100406.44
2022-10-06T08:39:01.500Z,100416.78
2022-10-06T08:41:48.637Z,100421.53
2022-10-06T08:44:24.079Z,100425.88
2022-10-06T08:47:05.044Z,100433.50
2022-10-06T08:49:39.093Z,100427.59
2022-10-06T08:52:20.305Z,100432.34
2022-10-06T08:54:58.717Z,100431.88
2022-10-06T08:57:34.862Z,100432.13
2022-10-06T09:00:04.350Z,100431.84
2022-10-06T09:02:39.280Z,100438.22
2022-10-06T09:05:10.327Z,100433.63
2022-10-06T09:07:49.799Z,100433.56
2022-10-06T09:10:33.676Z,100446.59
2022-10-06T09:13:08.376Z,100444.69
2022-10-06T09:15:45.207Z,100439.88
2022-10-06T09:18:22.415Z,100448.06
2022-10-06T09:20:55.134Z,100445.28
2022-10-06T09:23:44.573Z,100443.53
2022-10-06T09:26:14.607Z,100454.97
2022-10-06T09:28:48.329Z,100449.25
2022-10-06T09:31:25.361Z,100459.59
2022-10-06T09:33:56.049Z,100453.97
2022-10-06T09:36:24.889Z,100454.63
2022-10-06T09:38:55.541Z,100456.53
2022-10-06T09:41:30.848Z,100462.00
2022-10-06T09:44:04.593Z,100454.41
2022-10-06T09:46:35.682Z,100458.91
2022-10-06T09:49:20.301Z,100464.00
2022-10-06T09:52:03.291Z,100469.06
2022-10-06T09:54:34.728Z,100463.44
2022-10-06T09:57:11.095Z,100464.03
2022-10-06T09:59:46.228Z,100471.38
2022-10-06T10:02:28.362Z,100462.78
2022-10-06T10:05:01.005Z,100458.28
2022-10-06T10:07:31.606Z,100451.50
2022-10-06T10:10:21.466Z,100458.88
2022-10-06T10:12:53.961Z,100455.94
2022-10-06T10:15:31.790Z,100462.47
2022-10-06T10:18:04.197Z,100460.28
2022-10-06T10:20:35.772Z,100465.84
2022-10-06T10:23:30.154Z,100470.06
2022-10-06T10:26:19.182Z,100465.63
2022-10-06T10:29:08.039Z,100469.00
2022-10-06T10:31:56.975Z,100463.81
2022-10-06T10:34:49.056Z,100476.78
2022-10-06T10:37:22.163Z,100476.63
2022-10-06T10:39:56.449Z,100469.63
2022-10-06T10:42:31.358Z,100472.16
2022-10-06T10:45:03.108Z,100475.13
2022-10-06T10:47:45.127Z,100477.47
2022-10-06T10:50:30.210Z,100478.44
2022-10-06T10:53:03.715Z,100482.41
2022-10-06T10:55:37.888Z,100484.38
2022-10-06T10:58:16.257Z,100476.75
2022-10-06T11:00:51.937Z,100471.00
2022-10-06T11:03:23.301Z,100468.41
2022-10-06T11:06:16.598Z,100476.47
2022-10-06T11:08:54.844Z,100479.88
2022-10-06T11:11:35.082Z,100472.81
2022-10-06T11:14:09.017Z,100477.44
2022-10-06T11:16:45.772Z,100477.22
2022-10-06T11:19:41.474Z,100462.81
2022-10-06T11:22:23.511Z,100474.13
2022-10-06T11:25:02.624Z,100477.03
2022-10-06T11:27:41.967Z,100481.31
2022-10-06T11:30:18.493Z,100479.63
2022-10-06T11:33:01.512Z,100476.97
2022-10-06T11:35:36.913Z,100468.16
2022-10-06T11:38:17.446Z,100469.13
2022-10-06T11:40:56.465Z,100468.47
2022-10-06T11:43:34.871Z,100470.69
2022-10-06T11:46:11.430Z,100461.00
2022-10-06T11:48:40.715Z,100468.50
2022-10-06T11:51:33.249Z,100468.81
2022-10-06T11:54:01.937Z,100468.09
2022-10-06T11:56:39.444Z,100459.81
2022-10-06T11:59:28.719Z,100469.56
2022-10-06T12:02:01.080Z,100463.44
2022-10-06T12:04:29.643Z,100457.69
2022-10-06T12:07:08.678Z,100458.72
2022-10-06T12:09:52.011Z,100457.03
2022-10-06T12:12:47.757Z,100462.25
2022-10-06T12:18:54.811Z,100456.44
2022-10-06T12:21:40.329Z,100444.91
2022-10-06T12:24:26.467Z,100448.59
2022-10-06T12:27:08.382Z,100454.34
2022-10-06T12:29:46.286Z,100448.59
2022-10-06T12:32:53.971Z,100448.78
2022-10-06T12:35:30.841Z,100448.34
2022-10-06T12:38:04.899Z,100452.75
2022-10-06T12:43:55.571Z,100444.34
2022-10-06T12:46:46.754Z,100432.97
2022-10-06T12:49:35.703Z,100431.50
2022-10-06T12:52:20.909Z,100438.44
2022-10-06T12:55:04.884Z,100437.94
2022-10-06T12:57:46.819Z,100431.13
2022-10-06T13:00:35.628Z,100420.78
2022-10-06T13:03:06.553Z,100433.53
2022-10-06T13:05:37.258Z,100435.47
2022-10-06T13:08:07.112Z,100431.19
2022-10-06T13:10:35.520Z,100427.69
2022-10-06T13:13:04.060Z,100424.88
2022-10-06T13:15:36.807Z,100436.09
2022-10-06T13:18:14.601Z,100428.09
2022-10-06T13:20:45.193Z,100426.47
2022-10-06T13:23:25.973Z,100431.97
2022-10-06T13:25:57.837Z,100426.13
2022-10-06T13:28:30.041Z,100422.41
2022-10-06T13:31:19.248Z,100420.06
2022-10-06T13:33:50.535Z,100431.44
2022-10-06T13:36:25.818Z,100423.31
2022-10-06T13:38:55.048Z,100420.97
2022-10-06T13:41:29.304Z,100421.25
2022-10-06T13:44:02.066Z,100414.72
2022-10-06T13:46:39.925Z,100414.88
2022-10-06T13:49:21.313Z,100417.69
2022-10-06T13:51:54.904Z,100417.25
2022-10-06T13:54:29.736Z,100412.72
2022-10-06T13:56:58.804Z,100422.22
2022-10-06T13:59:44.505Z,100419.84
2022-10-06T14:02:32.729Z,100415.16
2022-10-06T14:05:29.461Z,100415.34
2022-10-06T14:08:01.500Z,100410.09
2022-10-06T14:10:33.877Z,100414.19
2022-10-06T14:13:03.661Z,100415.47
2022-10-06T14:15:40.641Z,100418.31
2022-10-06T14:18:21.199Z,100404.09
2022-10-06T14:20:50.383Z,100409.19
2022-10-06T14:23:36.318Z,100415.13
2022-10-06T14:26:04.702Z,100404.03
2022-10-06T14:28:35.904Z,100411.63
2022-10-06T14:31:04.411Z,100406.94
2022-10-06T14:33:35.985Z,100395.91
2022-10-06T14:36:04.128Z,100397.50
2022-10-06T14:38:33.161Z,100392.88
2022-10-06T14:41:03.655Z,100392.94
2022-10-06T14:43:32.045Z,100401.06
2022-10-06T14:46:04.083Z,100388.34
2022-10-06T14:48:38.521Z,100410.53
2022-10-06T14:51:10.617Z,100401.84
2022-10-06T14:53:40.771Z,100392.34
2022-10-06T14:56:14.155Z,100401.97
2022-10-06T14:58:46.073Z,100393.19
2022-10-06T15:01:17.722Z,100387.03
2022-10-06T15:03:58.614Z,100392.88
2022-10-06T15:06:44.726Z,100395.81
2022-10-06T15:09:13.780Z,100393.56
2022-10-06T15:11:42.756Z,100393.31
2022-10-06T15:14:11.073Z,100393.63
2022-10-06T15:16:42.531Z,100383.44
2022-10-06T15:19:13.457Z,100375.63
2022-10-06T15:21:45.501Z,100383.66
2022-10-06T15:24:15.381Z,100384.81
2022-10-06T15:27:01.600Z,100384.25
2022-10-06T15:29:30.237Z,100381.16
2022-10-06T15:32:00.428Z,100379.25
2022-10-06T15:34:32.296Z,100381.72
2022-10-06T15:37:01.941Z,100369.69
2022-10-06T15:39:31.792Z,100371.13
2022-10-06T15:42:00.736Z,100365.91
2022-10-06T15:44:33.483Z,100359.16
2022-10-06T15:47:02.021Z,100363.41
2022-10-06T15:49:33.164Z,100374.06
2022-10-06T15:52:04.647Z,100369.59
2022-10-06T15:54:37.807Z,100372.88
2022-10-06T15:57:10.312Z,100375.06
2022-10-06T15:59:40.365Z,100370.81
2022-10-06T16:02:14.961Z,100376.19
2022-10-06T16:04:57.933Z,100367.97
2022-10-06T16:07:26.424Z,100363.97
2022-10-06T16:09:58.168Z,100362.25
2022-10-06T16:12:28.699Z,100359.25
2022-10-06T16:14:57.153Z,100359.00
2022-10-06T16:17:25.877Z,100364.41
2022-10-06T16:19:55.831Z,100361.97
2022-10-06T16:22:24.489Z,100365.88
2022-10-06T16:24:53.231Z,100354.84
2022-10-06T16:27:24.669Z,100365.72
2022-10-06T16:29:53.469Z,100363.50
2022-10-06T16:32:21.727Z,100369.94
2022-10-06T16:34:50.887Z,100366.28
2022-10-06T16:37:20.653Z,100369.81
2022-10-06T16:39:49.019Z,100369.44
2022-10-06T16:42:18.192Z,100375.31
2022-10-06T16:44:46.701Z,100374.97
2022-10-06T16:47:15.773Z,100371.53
2022-10-06T16:49:45.335Z,100382.63
2022-10-06T16:52:13.694Z,100376.06
2022-10-06T16:54:43.903Z,100380.56
2022-10-06T16:57:12.258Z,100380.81
2022-10-06T16:59:46.479Z,100375.03
2022-10-06T17:02:15.447Z,100378.34
2022-10-06T17:04:43.946Z,100378.75
2022-10-06T17:07:12.496Z,100382.56
2022-10-06T17:10:01.573Z,100390.53
2022-10-06T17:12:32.971Z,100389.38
2022-10-06T17:15:01.636Z,100391.94
2022-10-06T17:17:30.139Z,100385.31
2022-10-06T17:19:58.375Z,100386.00
2022-10-06T17:22:26.878Z,100380.97
2022-10-06T17:25:00.631Z,100386.63
2022-10-06T17:27:32.768Z,100384.25
2022-10-06T17:30:01.218Z,100380.19
2022-10-06T17:32:29.822Z,100375.59
2022-10-06T17:35:01.177Z,100384.97
2022-10-06T17:37:30.185Z,100388.25
2022-10-06T17:40:00.707Z,100388.88
2022-10-06T17:42:29.155Z,100388.44
2022-10-06T17:44:58.792Z,100386.22
2022-10-06T17:47:28.385Z,100381.38
2022-10-06T17:49:57.410Z,100376.03
2022-10-06T17:52:26.683Z,100380.25
2022-10-06T17:54:56.791Z,100388.66
2022-10-06T17:57:30.825Z,100396.22
2022-10-06T18:00:01.188Z,100394.00
2022-10-06T18:02:29.981Z,100393.28
2022-10-06T18:05:00.838Z,100392.03
2022-10-06T18:07:29.898Z,100393.63
2022-10-06T18:10:14.821Z,100392.78
2022-10-06T18:12:48.917Z,100399.00
2022-10-06T18:15:18.654Z,100396.03
2022-10-06T18:17:48.102Z,100392.78
2022-10-06T18:20:16.735Z,100394.84
2022-10-06T18:22:45.283Z,100391.91
2022-10-06T18:25:17.094Z,100396.63
2022-10-06T18:27:47.984Z,100390.25
2022-10-06T18:30:16.880Z,100392.03
2022-10-06T18:38:23.365Z,100393.75
2022-10-06T18:41:00.578Z,100391.28
2022-10-06T18:43:30.898Z,100388.91
2022-10-06T18:46:19.961Z,100394.47
2022-10-06T18:48:58.706Z,100400.44
2022-10-06T18:51:31.597Z,100396.13
2022-10-06T18:54:02.845Z,100396.38
2022-10-06T18:56:33.051Z,100398.63
2022-10-06T18:59:09.031Z,100401.44
2022-10-06T19:01:41.280Z,100404.81
2022-10-06T19:04:14.949Z,100403.28
2022-10-06T19:06:47.767Z,100409.16
2022-10-06T19:09:18.301Z,100402.81
2022-10-06T19:11:52.200Z,100404.06
2022-10-06T19:14:24.653Z,100406.50
2022-10-06T19:16:56.551Z,100410.56
2022-10-06T19:19:26.679Z,100408.31
2022-10-06T19:21:59.868Z,100411.31
2022-10-06T19:24:30.263Z,100419.75
2022-10-06T19:27:02.488Z,100420.16
2022-10-06T19:29:37.186Z,100418.44
2022-10-06T19:32:08.034Z,100420.63
2022-10-06T19:34:38.488Z,100413.19
2022-10-06T19:37:08.266Z,100417.91
2022-10-06T19:39:42.973Z,100412.91
2022-10-06T19:42:31.617Z,100419.16
2022-10-06T19:45:01.701Z,100420.59
2022-10-06T19:47:30.604Z,100414.25
2022-10-06T19:50:03.737Z,100420.41
2022-10-06T19:52:40.269Z,100421.97
2022-10-06T19:55:08.786Z,100421.44
2022-10-06T19:57:37.509Z,100423.16
2022-10-06T20:00:11.301Z,100418.69
2022-10-06T20:02:42.424Z,100417.94
2022-10-06T20:05:12.459Z,100420.03
2022-10-06T20:07:41.232Z,100414.09
2022-10-06T20:10:11.899Z,100425.59
2022-10-06T20:12:41.684Z,100424.44
2022-10-06T20:15:13.024Z,100427.31
2022-10-06T20:17:42.826Z,100421.59
2022-10-06T20:20:11.781Z,100410.28
2022-10-06T20:22:41.508Z,100415.09
2022-10-06T20:25:11.490Z,100422.81
2022-10-06T20:27:40.065Z,100422.06
2022-10-06T20:30:12.394Z,100416.94
2022-10-06T20:32:43.107Z,100414.16
2022-10-06T20:35:11.951Z,100415.47
2022-10-06T20:37:42.494Z,100410.69
2022-10-06T20:40:28.677Z,100420.47
2022-10-06T20:42:59.346Z,100420.69
2022-10-06T20:45:30.289Z,100422.59
2022-10-06T20:48:00.361Z,100412.66
2022-10-06T20:50:31.312Z,100412.72
2022-10-06T20:53:01.734Z,100415.88
2022-10-06T20:55:30.340Z,100416.31
2022-10-06T20:57:59.043Z,100417.63
2022-10-06T21:00:29.756Z,100416.75
2022-10-06T21:02:59.690Z,100410.34
2022-10-06T21:05:33.635Z,100413.38
2022-10-06T21:08:02.525Z,100416.75
2022-10-06T21:10:31.438Z,100407.63
2022-10-06T21:13:00.398Z,100409.56
2022-10-06T21:15:30.647Z,100399.66
2022-10-06T21:18:02.737Z,100403.97
2022-10-06T21:20:31.509Z,100407.66
2022-10-06T21:23:04.277Z,100410.22
2022-10-06T21:25:33.108Z,100401.09
2022-10-06T21:28:01.762Z,100399.19
2022-10-06T21:30:33.985Z,100393.84
2022-10-06T21:33:04.094Z,100407.53
2022-10-06T21:35:33.163Z,100404.56
2022-10-06T21:38:01.813Z,100396.63
2022-10-06T21:40:30.861Z,100392.03
2022-10-06T21:42:59.501Z,100391.19
2022-10-06T21:45:33.196Z,100391.41
2022-10-06T21:48:05.361Z,100383.47
2022-10-06T21:50:34.119Z,100382.06
2022-10-06T21:53:03.521Z,100385.75
2022-10-06T21:55:32.206Z,100375.84
2022-10-06T21:58:01.511Z,100381.03
2022-10-06T22:00:30.524Z,100377.84
2022-10-06T22:03:02.993Z,100373.72
2022-10-06T22:05:35.188Z,100373.72
2022-10-06T22:08:04.084Z,100383.13
2022-10-06T22:10:33.617Z,100376.66
2022-10-06T22:13:02.302Z,100372.50
2022-10-06T22:15:32.071Z,100370.41
2022-10-06T22:18:03.694Z,100375.53
2022-10-06T22:20:35.870Z,100367.09
2022-10-06T22:23:06.600Z,100372.38
2022-10-06T22:25:37.667Z,100373.47
2022-10-06T22:28:06.334Z,100373.06
2022-10-06T22:30:35.093Z,100381.41
2022-10-06T22:33:03.551Z,100374.41
2022-10-06T22:35:35.449Z,100367.66
2022-10-06T22:38:04.139Z,100378.41
2022-10-06T22:40:33.433Z,100380.75
2022-10-06T22:43:02.124Z,100377.09
2022-10-06T22:45:30.767Z,100376.03
2022-10-06T22:47:59.292Z,100378.16
2022-10-06T22:50:27.946Z,100375.22
2022-10-06T22:52:58.558Z,100365.59
2022-10-06T22:55:27.253Z,100366.44
2022-10-06T22:57:56.253Z,100363.72
2022-10-06T23:00:28.159Z,100360.44
2022-10-06T23:02:57.142Z,100358.97
2022-10-06T23:05:26.248Z,100358.00
2022-10-06T23:07:55.561Z,100355.50
2022-10-06T23:10:25.994Z,100351.16
2022-10-06T23:12:56.435Z,100354.53
2022-10-06T23:15:25.982Z,100353.94
2022-10-06T23:17:56.985Z,100342.28
2022-10-06T23:20:28.872Z,100344.13
2022-10-06T23:22:57.472Z,100346.16
2022-10-06T23:25:27.847Z,100344.88
2022-10-06T23:28:04.343Z,100342.34
2022-10-06T23:30:36.477Z,100336.50
2022-10-06T23:33:06.593Z,100340.88
2022-10-06T23:35:35.449Z,100341.84
2022-10-06T23:38:04.193Z,100338.91
2022-10-06T23:40:34.569Z,100324.81
2022-10-06T23:43:03.258Z,100329.78
2022-10-06T23:45:34.016Z,100327.91
2022-10-06T23:48:03.133Z,100329.28
2022-10-06T23:50:32.416Z,100330.94
2022-10-06T23:53:01.347Z,100321.94
2022-10-06T23:55:30.199Z,100325.13
2022-10-06T23:58:01.163Z,100321.06
